WEATHER DATA

TODAY
Time Temp. Dewp. Hum. Wind dir Wind speed Wind gust Bar. 1h Prec. 24h Prec.
00:07 25.3 14.1 50 164 0.3 0.8 1018 0.0000 0.0000
00:18 25.2 14 50 180 0.3 0.8 1017.9 0.0000 0.0000
00:27 25.1 14 50 168 0.3 0.6 1018 0.0000 0.0000
00:37 25 13.9 50 150 0.3 0.6 1018 0.0000 0.0000
00:47 25 14.2 51 149 0.3 0.6 1018 0.0000 0.0000
00:58 24.9 14.1 51 135 0.3 0.6 1018 0.0000 0.0000
01:08 24.8 13.7 50 0 0.6 1018 0.0000 0.0000
01:18 24.8 13.7 50 156 0.3 0.6 1018 0.0000 0.0000
01:28 24.7 13.9 51 153 0.3 0.6 1018 0.0000 0.0000
01:38 24.6 13.8 51 0 0.6 1017.9 0.0000 0.0000
01:48 24.5 13.4 50 135 0.3 0.6 1017.9 0.0000 0.0000
01:58 24.5 13.4 50 135 0.3 0.6 1017.8 0.0000 0.0000
02:09 24.3 13.2 50 149 0.3 0.6 1017.8 0.0000 0.0000
02:19 24.2 13.1 50 135 0.3 0.8 1017.8 0.0000 0.0000
02:29 24.2 13.4 51 135 0.3 0.6 1017.8 0.0000 0.0000
02:39 24.1 13 50 161 0.3 0.6 1017.8 0.0000 0.0000
02:49 24 13.2 51 90 0.3 0.6 1017.8 0.0000 0.0000
02:59 24 13.2 51 156 0.3 0.6 1017.7 0.0000 0.0000
03:09 23.9 13.2 51 135 0.3 0.6 1017.7 0.0000 0.0000
03:20 23.9 13.5 52 90 0.3 0.6 1017.7 0.0000 0.0000
03:30 23.9 13.5 52 150 0.3 0.8 1017.7 0.0000 0.0000
03:40 23.8 13.4 52 90 0.3 0.6 1017.7 0.0000 0.0000
03:49 23.7 13.3 52 135 0.3 0.6 1017.7 0.0000 0.0000
04:00 23.7 13.3 52 135 0.3 0.6 1017.6 0.0000 0.0000
04:10 23.6 13.2 52 125 0.3 0.6 1017.6 0.0000 0.0000
04:20 23.6 13.2 52 135 0.3 0.6 1017.6 0.0000 0.0000
04:30 23.5 13.1 52 142 0.3 0.8 1017.7 0.0000 0.0000
04:41 23.5 13.4 53 150 0.3 0.8 1017.7 0.0000 0.0000
04:51 23.4 13.3 53 168 0.3 0.6 1017.6 0.0000 0.0000
05:00 23.3 13.2 53 135 0.3 0.6 1017.5 0.0000 0.0000
05:11 23.3 13.5 54 135 0.3 0.6 1017.5 0.0000 0.0000
05:21 23.2 13.4 54 149 0.3 0.8 1017.5 0.0000 0.0000
05:31 23.1 13.3 54 135 0.3 0.6 1017.5 0.0000 0.0000
05:41 23.6 13.8 54 90 0.3 0.6 1017.6 0.0000 0.0000
05:52 23.9 13.7 53 126 0.3 0.6 1017.7 0.0000 0.0000
06:02 24.1 13.9 53 90 0.3 0.6 1017.7 0.0000 0.0000
06:11 24.3 14.1 53 90 0.3 0.8 1017.6 0.0000 0.0000
06:22 24.5 14.3 53 90 0.3 0.6 1017.6 0.0000 0.0000
06:32 24.6 14.4 53 90 0.3 0.6 1017.6 0.0000 0.0000
06:42 24.4 13.9 52 125 0.3 0.6 1017.5 0.0000 0.0000
06:52 24 13.5 52 90 0.3 0.6 1017.4 0.0000 0.0000
07:03 23.6 13.5 53 0 0.6 1017.4 0.0000 0.0000
07:12 23.4 13.6 54 135 0.3 0.6 1017.4 0.0000 0.0000
07:22 23.2 13.4 54 0 0.6 1017.5 0.0000 0.0000
07:32 23 13.5 55 90 0.3 0.6 1017.6 0.0000 0.0000
07:43 22.9 13.4 55 135 0.3 0.6 1017.7 0.0000 0.0000
08:03 22.7 13.5 56 125 0.3 0.6 1017.9 0.0000 0.0000
08:13 22.7 13.5 56 180 0.3 0.6 1017.9 0.0000 0.0000
08:23 22.7 13.5 56 135 0.3 0.6 1018 0.0000 0.0000
08:33 22.7 13.8 57 0 0.6 1018 0.0000 0.0000
08:43 22.8 13.8 57 135 0.3 0.6 1018.1 0.0000 0.0000
08:54 23 14 57 180 0.3 0.6 1018.1 0.0000 0.0000
09:04 23.1 14.1 57 144 0.3 0.6 1018.1 0.0000 0.0000
09:14 23.3 14.3 57 173 0.3 0.6 1018.1 0.0000 0.0000
09:24 23.4 14.4 57 188 0.3 0.8 1018.1 0.0000 0.0000
09:34 23.7 14.7 57 146 0.3 0.6 1018.1 0.0000 0.0000
09:44 23.9 14.6 56 206 0.3 0.3 1018.2 0.0000 0.0000
09:54 24.2 14.9 56 198 0.3 0.6 1018.3 0.0000 0.0000
10:05 24.5 15.2 56 209 0.3 0.6 1018.3 0.0000 0.0000
10:15 24.8 15.2 55 215 0.3 0.6 1018.3 0.0000 0.0000
10:24 25.1 15.4 55 217 0.3 0.6 1018.2 0.0000 0.0000
10:34 25.4 15.4 54 209 0.3 0.8 1018.3 0.0000 0.0000
10:54 26 15.7 53 204 0.3 0.6 1018.2 0.0000 0.0000
11:04 26.1 15.5 52 147 0.3 0.8 1018.2 0.0000 0.0000
11:15 26.5 16.1 53 195 0.3 0.8 1018.2 0.0000 0.0000
11:25 26.6 15.6 51 150 0.3 0.8 1018.2 0.0000 0.0000
11:34 26.7 15.7 51 158 0.3 0.8 1018.2 0.0000 0.0000
11:45 27.2 16.2 51 216 0.3 0.6 1018.2 0.0000 0.0000
11:55 27.5 16.5 51 164 0.3 0.6 1018.2 0.0000 0.0000
12:05 27.8 16.4 50 201 0.3 0.6 1018.2 0.0000 0.0000
12:15 28.3 16.6 49 206 0.3 0.6 1018.1 0.0000 0.0000
12:26 28.6 16.5 48 201 0.3 0.6 1018 0.0000 0.0000
12:36 29 16.6 47 201 0.3 0.6 1018 0.0000 0.0000
12:55 29.5 16.7 46 164 0.3 0.6 1017.9 0.0000 0.0000
13:06 29.9 16.7 45 173 0.3 0.8 1018 0.0000 0.0000
13:16 29.8 16.2 44 144 0.3 0.6 1017.9 0.0000 0.0000
13:36 30.3 16.3 43 153 0.3 1.1 1017.9 0.0000 0.0000
13:46 30.4 16.4 43 143 0.3 0.6 1017.7 0.0000 0.0000
13:56 30.7 16.7 43 180 0.3 0.6 1017.5 0.0000 0.0000
14:06 30.7 16.3 42 135 0.3 1.1 1017.5 0.0000 0.0000
14:17 31 17 43 149 0.3 0.8 1017.5 0.0000 0.0000
14:27 31.3 17.2 43 146 0.3 0.8 1017.3 0.0000 0.0000
14:37 31.5 17 42 135 0.3 0.6 1017.3 0.0000 0.0000
14:47 31.7 17.2 42 141 0.3 0.8 1017.3 0.0000 0.0000
14:57 31.6 16.7 41 124 0.3 1.1 1017.2 0.0000 0.0000
15:07 31.5 16.7 41 156 0.3 0.8 1017.2 0.0000 0.0000
15:17 31.5 17 42 0 0.6 1016.9 0.0000 0.0000
15:28 31.4 16.6 41 164 0.3 0.8 1016.9 0.0000 0.0000
15:38 31.5 17 42 0 0.6 1016.9 0.0000 0.0000
15:48 31.6 16.7 41 0 0.6 1016.8 0.0000 0.0000
15:57 31.8 17.3 42 0 0.6 1016.6 0.0000 0.0000
16:08 31.7 16.8 41 135 0.3 1.4 1016.5 0.0000 0.0000
16:18 31.6 16.7 41 191 0.3 1.1 1016.5 0.0000 0.0000
16:28 31.6 16.7 41 153 0.3 0.6 1016.5 0.0000 0.0000
16:38 31.4 16.9 42 168 0.3 0.8 1016.5 0.0000 0.0000
16:49 31.2 17.1 43 270 0.3 0.8 1016.5 0.0000 0.0000
16:59 30.9 16.9 43 270 0.3 0.8 1016.5 0.0000 0.0000
17:08 30.7 17.1 44 270 0.3 0.8 1016.5 0.0000 0.0000
17:19 30.6 17 44 270 0.3 0.8 1016.4 0.0000 0.0000
17:29 30.4 16.8 44 270 0.3 0.8 1016.4 0.0000 0.0000
17:39 30.3 17 45 270 0.3 0.8 1016.3 0.0000 0.0000
17:49 30.1 16.9 45 270 0.3 0.8 1016.4 0.0000 0.0000
18:00 29.9 16.7 45 270 0.3 0.8 1016.4 0.0000 0.0000
18:09 29.7 16.5 45 270 0.3 0.8 1016.4 0.0000 0.0000
18:19 29.6 16.8 46 270 0.3 0.6 1016.4 0.0000 0.0000
18:30 29.4 16.6 46 315 0.3 0.6 1016.4 0.0000 0.0000
18:40 29.2 16.7 47 270 0.3 0.6 1016.3 0.0000 0.0000
18:50 29.1 17 48 315 0.3 0.8 1016.3 0.0000 0.0000
19:00 28.9 16.8 48 315 0.3 0.6 1016.3 0.0000 0.0000
19:11 28.7 16.6 48 270 0.3 0.8 1016.2 0.0000 0.0000
19:20 28.5 16.8 49 270 0.3 0.8 1016.3 0.0000 0.0000
19:30 28.4 16.7 49 308 0.3 0.6 1016.3 0.0000 0.0000
19:40 28.3 17.2 51 303 0.3 0.8 1016.4 0.0000 0.0000
19:51 28.1 16.7 50 309 0.3 0.8 1016.5 0.0000 0.0000
20:01 27.9 16.5 50 309 0.3 0.8 1016.6 0.0000 0.0000

DAY STATISTIC

2018-08-20
TEMPERATURE
AVERAGE
26.6
HIGH
31.8
15:57
LOW
22.7
08:03
PRESSURE
AVERAGE
1017.5
HIGH
1018.3
09:54
LOW
1016.2
19:11
DEWPOINT
AVERAGE
15.1
HIGH
17.3
15:57
LOW
13.0
02:39
HUMIDITY
AVERAGE
50
HIGH
57
08:33
LOW
41
14:57
WIND SPEED
AVERAGE
0.3
HIGH
0.3
00:07
WIND GUST
AVERAGE
0.7
HIGH
1.4
16:08
WIND DIRECTION
PREVAILING
SE
40%
N
0.0
NE
0.0
E
8.7
SE
40.0
S
20.0
SW
6.1
W
11.3
NW
6.1
PRECIPITATION
RAIN HOUR
0.0
RAIN DAY
0.0
TEMPERATURE (°C)
LOW
22.7
HIGH
31.8
AVERAGE
26.6
PRESSURE (hpa)
LOW
1016.2
HIGH
1018.3
AVERAGE
1017.5
DEVICE